createdAt,value
2017-01-24T00:00:40.823Z,71.78
2017-01-24T00:01:52.623Z,71.88
2017-01-24T00:03:02.647Z,71.88
2017-01-24T00:04:13.933Z,71.78
2017-01-24T00:05:25.983Z,71.69
2017-01-24T00:06:36.335Z,71.59
2017-01-24T00:07:49.021Z,71.5
2017-01-24T00:08:58.523Z,71.97
2017-01-24T00:10:09.567Z,71.69
2017-01-24T00:11:23.617Z,71.97
2017-01-24T00:12:35.327Z,71.97
2017-01-24T00:13:47.677Z,72.16
2017-01-24T00:14:59.476Z,72.16
2017-01-24T00:16:10.729Z,71.97
2017-01-24T00:17:22.586Z,72.16
2017-01-24T00:18:35.515Z,72.25
2017-01-24T00:19:48.799Z,71.69
2017-01-24T00:20:59.514Z,71.69
2017-01-24T00:22:11.611Z,71.59
2017-01-24T00:23:21.400Z,71.4
2017-01-24T00:24:34.288Z,71.69
2017-01-24T00:25:47.155Z,71.4
2017-01-24T00:26:58.666Z,71.5
2017-01-24T00:28:07.620Z,71.31
2017-01-24T00:29:19.929Z,71.78
2017-01-24T00:30:31.700Z,71.78
2017-01-24T00:31:40.807Z,71.59
2017-01-24T00:32:51.262Z,71.31
2017-01-24T00:34:02.508Z,71.88
2017-01-24T00:35:12.098Z,71.78
2017-01-24T00:36:22.927Z,72.16
2017-01-24T00:37:34.362Z,71.88
2017-01-24T00:38:43.974Z,72.16
2017-01-24T00:39:54.602Z,72.25
2017-01-24T00:41:06.127Z,71.78
2017-01-24T00:42:17.168Z,71.69
2017-01-24T00:43:31.189Z,71.69
2017-01-24T00:44:42.370Z,71.5
2017-01-24T00:45:51.871Z,71.69
2017-01-24T00:47:01.964Z,71.5
2017-01-24T00:48:11.498Z,71.4
2017-01-24T00:49:22.228Z,71.5
2017-01-24T00:50:33.112Z,71.5
2017-01-24T00:51:43.659Z,71.88
2017-01-24T00:52:54.481Z,71.59
2017-01-24T00:54:04.979Z,71.5
2017-01-24T00:55:16.034Z,71.59
2017-01-24T00:56:28.214Z,71.78
2017-01-24T00:57:39.605Z,71.78
2017-01-24T00:58:50.045Z,71.88
2017-01-24T01:00:01.403Z,71.5
2017-01-24T01:01:11.142Z,71.4
2017-01-24T01:02:20.172Z,71.21
2017-01-24T01:03:29.126Z,71.25
2017-01-24T01:04:39.307Z,71.25
2017-01-24T01:05:48.293Z,71.15
2017-01-24T01:06:57.250Z,71.25
2017-01-24T01:08:06.201Z,71.12
2017-01-24T01:09:15.154Z,71.59
2017-01-24T01:10:24.106Z,71.44
2017-01-24T01:11:33.066Z,71.5
2017-01-24T01:12:42.020Z,71.44
2017-01-24T01:13:51.058Z,71.15
2017-01-24T01:15:00.013Z,71.06
2017-01-24T01:16:08.967Z,71.21
2017-01-24T01:17:17.918Z,71.21
2017-01-24T01:18:26.885Z,71.21
2017-01-24T01:19:35.831Z,71.12
2017-01-24T01:20:44.780Z,71.59
2017-01-24T01:21:53.735Z,71.59
2017-01-24T01:23:02.690Z,71.59
2017-01-24T01:24:11.645Z,71.59
2017-01-24T01:25:21.108Z,71.88
2017-01-24T01:26:30.105Z,71.69
2017-01-24T01:27:39.061Z,71.78
2017-01-24T01:28:48.019Z,71.5
2017-01-24T01:29:56.974Z,71.59
2017-01-24T01:31:06.017Z,71.31
2017-01-24T01:32:14.961Z,71.69
2017-01-24T01:33:23.914Z,71.59
2017-01-24T01:34:32.867Z,71.31
2017-01-24T01:35:41.816Z,71.59
2017-01-24T01:36:50.773Z,71.5
2017-01-24T01:37:59.724Z,71.31
2017-01-24T01:39:08.764Z,71.5
2017-01-24T01:40:17.728Z,71.4
2017-01-24T01:41:26.674Z,71.4
2017-01-24T01:42:35.712Z,71.4
2017-01-24T01:43:44.665Z,71.59
2017-01-24T01:44:53.615Z,71.5
2017-01-24T01:46:02.590Z,71.12
2017-01-24T01:47:11.550Z,71.12
2017-01-24T01:48:20.499Z,71.12
2017-01-24T01:49:29.475Z,71.12
2017-01-24T01:50:38.430Z,71.02
2017-01-24T01:51:47.379Z,70.93
2017-01-24T01:52:56.328Z,71.21
2017-01-24T01:54:05.277Z,71.21
2017-01-24T01:55:14.322Z,71.12
2017-01-24T01:56:23.275Z,71.12
2017-01-24T01:57:32.225Z,70.83
2017-01-24T01:58:41.179Z,71.12
2017-01-24T01:59:50.131Z,71.5
2017-01-24T02:00:59.081Z,71.31
2017-01-24T02:02:08.032Z,71.4
2017-01-24T02:03:16.982Z,71.4
2017-01-24T02:04:25.934Z,71.31
2017-01-24T02:05:34.974Z,71.5
2017-01-24T02:06:43.925Z,71.21
2017-01-24T02:07:53.292Z,71.5
2017-01-24T02:09:02.330Z,71.4
2017-01-24T02:10:11.283Z,71.5
2017-01-24T02:11:20.248Z,71.15
2017-01-24T02:12:29.201Z,70.93
2017-01-24T02:13:38.157Z,70.87
2017-01-24T02:14:47.108Z,70.97
2017-01-24T02:15:56.058Z,71.15
2017-01-24T02:17:05.039Z,71.06
2017-01-24T02:18:13.995Z,70.68
2017-01-24T02:19:22.944Z,70.87
2017-01-24T02:20:31.917Z,70.49
2017-01-24T02:21:40.871Z,70.78
2017-01-24T02:22:49.827Z,70.87
2017-01-24T02:23:58.781Z,70.97
2017-01-24T02:25:07.728Z,70.39
2017-01-24T02:26:16.676Z,70.58
2017-01-24T02:27:25.633Z,70.49
2017-01-24T02:28:34.612Z,70.68
2017-01-24T02:29:43.653Z,70.49
2017-01-24T02:30:52.607Z,70.58
2017-01-24T02:32:01.558Z,70.58
2017-01-24T02:33:10.523Z,70.39
2017-01-24T02:34:19.478Z,70.68
2017-01-24T02:35:28.441Z,70.58
2017-01-24T02:36:37.480Z,70.49
2017-01-24T02:37:46.433Z,70.58
2017-01-24T02:38:55.385Z,70.58
2017-01-24T02:40:04.337Z,70.58
2017-01-24T02:41:13.294Z,70.58
2017-01-24T02:42:22.252Z,70.39
2017-01-24T02:43:31.379Z,70.49
2017-01-24T02:44:40.340Z,70.58
2017-01-24T02:45:49.292Z,70.87
2017-01-24T02:46:58.239Z,70.68
2017-01-24T02:48:07.190Z,70.58
2017-01-24T02:49:16.147Z,70.87
2017-01-24T02:50:25.107Z,70.39
2017-01-24T02:51:34.055Z,70.11
2017-01-24T02:52:43.185Z,70.11
2017-01-24T02:53:52.135Z,70.2
2017-01-24T02:55:01.108Z,70.3
2017-01-24T02:56:10.058Z,70.3
2017-01-24T02:57:19.045Z,70.3
2017-01-24T02:58:27.998Z,70.11
2017-01-24T02:59:36.948Z,69.92
2017-01-24T03:00:45.902Z,69.73
2017-01-24T03:01:54.859Z,69.82
2017-01-24T03:03:03.809Z,69.92
2017-01-24T03:04:12.764Z,70.01
2017-01-24T03:05:21.722Z,69.92
2017-01-24T03:06:30.673Z,69.92
2017-01-24T03:07:39.628Z,69.82
2017-01-24T03:08:48.586Z,69.82
2017-01-24T03:09:57.546Z,69.73
2017-01-24T03:11:06.499Z,69.92
2017-01-24T03:12:15.451Z,70.39
2017-01-24T03:13:24.408Z,69.92
2017-01-24T03:14:33.361Z,69.82
2017-01-24T03:15:42.311Z,70.01
2017-01-24T03:16:51.265Z,69.82
2017-01-24T03:18:00.216Z,69.92
2017-01-24T03:19:09.166Z,69.64
2017-01-24T03:20:18.114Z,70.01
2017-01-24T03:21:27.068Z,70.01
2017-01-24T03:22:36.022Z,69.82
2017-01-24T03:23:44.978Z,70.11
2017-01-24T03:24:53.930Z,69.64
2017-01-24T03:26:02.885Z,70.39
2017-01-24T03:27:11.839Z,70.49
2017-01-24T03:28:20.791Z,70.39
2017-01-24T03:29:29.743Z,70.58
2017-01-24T03:30:38.695Z,70.58
2017-01-24T03:31:47.656Z,70.11
2017-01-24T03:32:56.610Z,70.68
2017-01-24T03:34:05.562Z,70.58
2017-01-24T03:35:14.527Z,70.68
2017-01-24T03:36:23.479Z,70.58
2017-01-24T03:37:32.428Z,70.11
2017-01-24T03:38:41.385Z,70.39
2017-01-24T03:39:50.333Z,70.3
2017-01-24T03:40:59.286Z,70.2
2017-01-24T03:42:08.234Z,70.3
2017-01-24T03:43:17.198Z,70.3
2017-01-24T03:44:26.151Z,70.49
2017-01-24T03:45:35.102Z,70.17
2017-01-24T03:46:44.053Z,70.26
2017-01-24T03:47:53.003Z,70.45
2017-01-24T03:49:01.956Z,70.36
2017-01-24T03:50:10.906Z,70.68
2017-01-24T03:51:19.858Z,70.74
2017-01-24T03:52:28.810Z,70.78
2017-01-24T03:53:37.758Z,70.39
2017-01-24T03:54:46.720Z,70.11
2017-01-24T03:55:55.674Z,70.45
2017-01-24T03:57:04.623Z,70.3
2017-01-24T03:58:13.666Z,70.58
2017-01-24T03:59:22.615Z,70.49
2017-01-24T04:00:31.566Z,70.39
2017-01-24T04:01:40.519Z,70.58
2017-01-24T04:02:49.477Z,70.11
2017-01-24T04:03:58.427Z,70.55
2017-01-24T04:05:07.387Z,70.3
2017-01-24T04:06:16.357Z,70.68
2017-01-24T04:07:25.309Z,70.45
2017-01-24T04:08:34.256Z,70.58
2017-01-24T04:09:43.205Z,70.3
2017-01-24T04:10:52.161Z,70.49
2017-01-24T04:12:01.110Z,70.11
2017-01-24T04:13:10.150Z,70.11
2017-01-24T04:14:19.105Z,70.39
2017-01-24T04:15:28.055Z,70.2
2017-01-24T04:16:37.098Z,70.3
2017-01-24T04:17:46.053Z,70.3
2017-01-24T04:18:55.002Z,69.92
2017-01-24T04:20:03.955Z,70.01
2017-01-24T04:21:12.903Z,69.82
2017-01-24T04:22:21.855Z,69.73
2017-01-24T04:23:30.896Z,70.01
2017-01-24T04:24:39.854Z,70.01
2017-01-24T04:25:48.819Z,70.11
2017-01-24T04:26:57.773Z,70.11
2017-01-24T04:28:06.727Z,70.01
2017-01-24T04:29:15.683Z,69.92
2017-01-24T04:30:24.636Z,70.01
2017-01-24T04:31:33.677Z,70.01
2017-01-24T04:32:42.640Z,69.7
2017-01-24T04:33:51.619Z,70.3
2017-01-24T04:35:00.565Z,70.17
2017-01-24T04:36:09.603Z,70.11
2017-01-24T04:37:18.555Z,69.92
2017-01-24T04:38:27.512Z,69.73
2017-01-24T04:39:36.476Z,69.64
2017-01-24T04:40:45.425Z,69.73
2017-01-24T04:41:54.373Z,69.73
2017-01-24T04:43:03.327Z,69.92
2017-01-24T04:44:12.276Z,69.82
2017-01-24T04:45:21.226Z,70.2
2017-01-24T04:46:30.180Z,70.3
2017-01-24T04:47:39.221Z,70.3
2017-01-24T04:48:48.180Z,69.89
2017-01-24T04:49:57.252Z,70.17
2017-01-24T04:51:06.212Z,70.17
2017-01-24T04:52:15.173Z,70.26
2017-01-24T04:53:24.122Z,70.36
2017-01-24T04:54:33.072Z,70.93
2017-01-24T04:55:42.019Z,70.74
2017-01-24T04:56:50.972Z,70.55
2017-01-24T04:57:59.927Z,70.74
2017-01-24T04:59:08.883Z,70.55
2017-01-24T05:00:17.832Z,70.55
2017-01-24T05:01:26.781Z,70.45
2017-01-24T05:02:35.764Z,70.45
2017-01-24T05:03:44.711Z,71.21
2017-01-24T05:04:53.749Z,70.93
2017-01-24T05:06:02.783Z,71.21
2017-01-24T05:07:11.735Z,71.02
2017-01-24T05:08:20.690Z,70.93
2017-01-24T05:09:29.726Z,70.93
2017-01-24T05:10:38.678Z,70.93
2017-01-24T05:11:47.639Z,70.93
2017-01-24T05:12:56.641Z,71.12
2017-01-24T05:14:05.614Z,71.5
2017-01-24T05:15:14.568Z,71.4
2017-01-24T05:16:23.523Z,71.5
2017-01-24T05:17:32.473Z,71.5
2017-01-24T05:18:41.422Z,71.4
2017-01-24T05:19:50.457Z,71.78
2017-01-24T05:20:59.407Z,71.97
2017-01-24T05:22:08.376Z,71.97
2017-01-24T05:23:17.328Z,71.5
2017-01-24T05:24:26.275Z,71.59
2017-01-24T05:25:35.234Z,71.21
2017-01-24T05:26:44.183Z,71.5
2017-01-24T05:27:53.139Z,70.93
2017-01-24T05:29:02.089Z,70.83
2017-01-24T05:30:11.044Z,71.12
2017-01-24T05:31:19.996Z,71.12
2017-01-24T05:32:28.948Z,71.12
2017-01-24T05:33:37.901Z,71.21
2017-01-24T05:34:46.851Z,71.06
2017-01-24T05:35:55.802Z,71.06
2017-01-24T05:37:04.759Z,70.68
2017-01-24T05:38:13.749Z,70.78
2017-01-24T05:39:22.700Z,70.49
2017-01-24T05:40:31.683Z,70.49
2017-01-24T05:41:40.636Z,70.87
2017-01-24T05:42:49.600Z,70.58
2017-01-24T05:43:58.553Z,70.3
2017-01-24T05:45:07.502Z,70.01
2017-01-24T05:46:16.457Z,69.73
2017-01-24T05:47:25.405Z,69.82
2017-01-24T05:48:34.356Z,69.82
2017-01-24T05:49:43.309Z,70.01
2017-01-24T05:50:52.355Z,69.73
2017-01-24T05:52:01.310Z,69.82
2017-01-24T05:53:10.268Z,69.82
2017-01-24T05:54:19.238Z,69.82
2017-01-24T05:55:28.185Z,69.82
2017-01-24T05:56:37.139Z,69.82
2017-01-24T05:57:46.090Z,69.82
2017-01-24T05:58:55.045Z,70.01
2017-01-24T06:00:03.999Z,69.92
2017-01-24T06:01:12.953Z,70.11
2017-01-24T06:02:21.905Z,69.82
2017-01-24T06:03:30.859Z,69.64
2017-01-24T06:04:39.819Z,69.64
2017-01-24T06:05:48.775Z,69.82
2017-01-24T06:06:57.826Z,69.82
2017-01-24T06:08:06.778Z,69.64
2017-01-24T06:09:15.731Z,69.73
2017-01-24T06:10:24.765Z,69.82
2017-01-24T06:11:33.714Z,69.73
2017-01-24T06:12:42.754Z,69.82
2017-01-24T06:13:51.702Z,70.11
2017-01-24T06:15:00.653Z,69.73
2017-01-24T06:16:09.625Z,70.11
2017-01-24T06:17:18.578Z,70.2
2017-01-24T06:18:27.618Z,69.82
2017-01-24T06:19:36.573Z,69.64
2017-01-24T06:20:45.531Z,69.92
2017-01-24T06:21:54.483Z,69.73
2017-01-24T06:23:03.520Z,70.01
2017-01-24T06:24:12.478Z,70.01
2017-01-24T06:25:21.445Z,70.11
2017-01-24T06:26:30.396Z,69.92
2017-01-24T06:27:39.756Z,70.01
2017-01-24T06:28:48.709Z,70.2
2017-01-24T06:29:57.666Z,69.82
2017-01-24T06:31:06.625Z,70.01
2017-01-24T06:32:15.573Z,69.82
2017-01-24T06:33:24.524Z,70.01
2017-01-24T06:34:33.484Z,69.92
2017-01-24T06:35:42.437Z,69.82
2017-01-24T06:36:51.396Z,69.73
2017-01-24T06:38:00.352Z,70.2
2017-01-24T06:39:09.305Z,70.39
2017-01-24T06:40:18.251Z,70.49
2017-01-24T06:41:27.202Z,70.49
2017-01-24T06:42:36.159Z,70.2
2017-01-24T06:43:45.112Z,70.39
2017-01-24T06:44:54.062Z,70.49
2017-01-24T06:46:03.022Z,70.58
2017-01-24T06:47:12.062Z,70.11
2017-01-24T06:48:21.012Z,70.3
2017-01-24T06:49:29.964Z,70.58
2017-01-24T06:50:38.911Z,70.39
2017-01-24T06:51:47.866Z,70.39
2017-01-24T06:52:56.818Z,70.3
2017-01-24T06:54:05.768Z,70.58
2017-01-24T06:55:14.723Z,70.49
2017-01-24T06:56:23.675Z,70.49
2017-01-24T06:57:32.631Z,70.68
2017-01-24T06:58:41.590Z,70.68
2017-01-24T06:59:50.547Z,70.49
2017-01-24T07:00:59.497Z,70.49
2017-01-24T07:02:08.447Z,70.49
2017-01-24T07:03:17.404Z,70.58
2017-01-24T07:04:26.355Z,70.3
2017-01-24T07:05:35.310Z,70.3
2017-01-24T07:06:44.267Z,70.11
2017-01-24T07:07:53.219Z,70.2
2017-01-24T07:09:02.168Z,70.11
2017-01-24T07:10:11.124Z,70.3
2017-01-24T07:11:20.164Z,70.39
2017-01-24T07:12:29.119Z,70.3
2017-01-24T07:13:38.558Z,70.58
2017-01-24T07:14:47.598Z,70.39
2017-01-24T07:15:56.548Z,70.49
2017-01-24T07:17:05.585Z,70.78
2017-01-24T07:18:14.861Z,70.87
2017-01-24T07:19:24.903Z,71.25
2017-01-24T07:20:34.519Z,70.87
2017-01-24T07:21:44.127Z,70.93
2017-01-24T07:22:53.750Z,71.44
2017-01-24T07:24:03.380Z,71.4
2017-01-24T07:25:12.942Z,71.4
2017-01-24T07:26:23.062Z,71.59
2017-01-24T07:27:32.014Z,71.78
2017-01-24T07:28:40.968Z,71.88
2017-01-24T07:29:49.919Z,71.31
2017-01-24T07:31:00.384Z,71.5
2017-01-24T07:32:11.834Z,71.31
2017-01-24T07:33:20.812Z,71.53
2017-01-24T07:34:30.014Z,71.72
2017-01-24T07:35:40.022Z,71.34
2017-01-24T07:36:51.522Z,71.5
2017-01-24T07:38:01.581Z,71.4
2017-01-24T07:39:12.492Z,71.31
2017-01-24T07:40:21.533Z,71.62
2017-01-24T07:41:32.074Z,71.53
2017-01-24T07:42:43.242Z,71.53
2017-01-24T07:43:52.586Z,71.44
2017-01-24T07:45:03.495Z,70.97
2017-01-24T07:46:13.132Z,71.15
2017-01-24T07:47:22.513Z,71.62
2017-01-24T07:48:32.344Z,71.81
2017-01-24T07:49:44.944Z,71.53
2017-01-24T07:50:57.325Z,71.53
2017-01-24T07:52:06.902Z,71.06
2017-01-24T07:53:17.549Z,71.15
2017-01-24T07:54:27.808Z,71.15
2017-01-24T07:55:38.131Z,71.15
2017-01-24T07:56:47.768Z,71.06
2017-01-24T07:57:56.765Z,71.25
2017-01-24T07:59:06.932Z,70.97
2017-01-24T08:00:17.106Z,71.25
2017-01-24T08:01:26.709Z,71.25
2017-01-24T08:02:36.161Z,70.68
2017-01-24T08:03:46.096Z,70.58
2017-01-24T08:04:55.684Z,70.78
2017-01-24T08:06:05.527Z,71.25
2017-01-24T08:07:15.406Z,71.06
2017-01-24T08:08:24.361Z,71.15
2017-01-24T08:09:33.314Z,71.15
2017-01-24T08:10:42.272Z,70.78
2017-01-24T08:11:51.353Z,71.06
2017-01-24T08:13:00.307Z,70.97
2017-01-24T08:14:09.263Z,71.06
2017-01-24T08:15:18.557Z,71.25
2017-01-24T08:16:27.790Z,71.06
2017-01-24T08:17:36.843Z,70.97
2017-01-24T08:18:45.879Z,71.06
2017-01-24T08:19:55.662Z,71.34
2017-01-24T08:21:04.640Z,72.38
2017-01-24T08:22:13.592Z,72.38
2017-01-24T08:23:22.901Z,72.96
2017-01-24T08:24:31.882Z,73.14
2017-01-24T08:25:40.841Z,73.61
2017-01-24T08:26:49.797Z,75.04
2017-01-24T08:27:58.753Z,76.17
2017-01-24T08:29:07.832Z,77.69
2017-01-24T08:30:16.788Z,78.64
2017-01-24T08:31:25.741Z,78.92
2017-01-24T08:32:34.700Z,79.21
2017-01-24T08:33:43.686Z,79.3
2017-01-24T08:34:52.641Z,79.49
2017-01-24T08:36:01.663Z,79.49
2017-01-24T08:37:10.616Z,79.49
2017-01-24T08:38:19.590Z,79.49
2017-01-24T08:39:28.543Z,79.58
2017-01-24T08:40:37.499Z,79.58
2017-01-24T08:41:46.561Z,78.73
2017-01-24T08:42:55.519Z,79.11
2017-01-24T08:44:04.795Z,79.49
2017-01-24T08:45:14.370Z,79.02
2017-01-24T08:46:23.421Z,79.39
2017-01-24T08:47:32.383Z,79.39
2017-01-24T08:48:41.512Z,78.83
2017-01-24T08:49:50.467Z,78.73
2017-01-24T08:50:59.425Z,79.11
2017-01-24T08:52:08.409Z,78.73
2017-01-24T08:53:17.373Z,78.54
2017-01-24T08:54:26.323Z,78.16
2017-01-24T08:55:35.272Z,77.4
2017-01-24T08:56:44.991Z,77.5
2017-01-24T08:57:53.948Z,75.51
2017-01-24T08:59:02.907Z,75.79
2017-01-24T09:00:11.864Z,75.89
2017-01-24T09:01:20.825Z,76.65
2017-01-24T09:02:30.519Z,76.84
2017-01-24T09:03:45.187Z,76.74
2017-01-24T09:05:06.893Z,76.46
2017-01-24T09:06:26.929Z,76.84
2017-01-24T09:07:39.812Z,76.93
2017-01-24T09:08:56.408Z,76.93
2017-01-24T09:10:05.445Z,76.74
2017-01-24T09:11:15.909Z,76.74
2017-01-24T09:12:24.947Z,76.65
2017-01-24T09:13:33.905Z,76.74
2017-01-24T09:14:42.868Z,76.55
2017-01-24T09:15:51.828Z,76.36
2017-01-24T09:17:00.781Z,76.08
2017-01-24T09:18:09.740Z,76.36
2017-01-24T09:19:18.701Z,76.17
2017-01-24T09:20:27.739Z,75.04
2017-01-24T09:21:36.695Z,75.23
2017-01-24T09:22:45.683Z,75.13
2017-01-24T09:23:54.634Z,75.42
2017-01-24T09:25:03.584Z,75.23
2017-01-24T09:26:12.541Z,74.56
2017-01-24T09:27:21.500Z,75.42
2017-01-24T09:28:30.462Z,74.75
2017-01-24T09:29:39.418Z,75.04
2017-01-24T09:30:48.371Z,74.66
2017-01-24T09:31:57.326Z,74.28
2017-01-24T09:33:06.280Z,74.28
2017-01-24T09:34:15.236Z,74.47
2017-01-24T09:35:24.187Z,74.37
2017-01-24T09:36:33.135Z,74.37
2017-01-24T09:37:42.087Z,74.56
2017-01-24T09:38:51.044Z,74.28
2017-01-24T09:40:00.367Z,74.28
2017-01-24T09:41:09.326Z,74.18
2017-01-24T09:42:18.283Z,73.99
2017-01-24T09:43:27.235Z,73.9
2017-01-24T09:44:36.304Z,74.22
2017-01-24T09:45:46.112Z,73.84
2017-01-24T09:46:55.063Z,73.94
2017-01-24T09:48:04.034Z,73.75
2017-01-24T09:49:13.242Z,73.37
2017-01-24T09:50:22.674Z,73.52
2017-01-24T09:51:31.631Z,73.71
2017-01-24T09:52:40.836Z,74.09
2017-01-24T09:53:50.022Z,74.13
2017-01-24T09:54:59.080Z,73.94
2017-01-24T09:56:08.317Z,73.65
2017-01-24T09:57:17.270Z,73.46
2017-01-24T09:58:26.666Z,73.27
2017-01-24T09:59:35.619Z,73.43
2017-01-24T10:00:44.569Z,73.14
2017-01-24T10:01:53.517Z,73.24
2017-01-24T10:03:02.465Z,73.65
2017-01-24T10:04:11.416Z,73.33
2017-01-24T10:05:20.373Z,73.56
2017-01-24T10:06:29.348Z,73.61
2017-01-24T10:07:38.463Z,73.65
2017-01-24T10:08:47.456Z,73.37
2017-01-24T10:09:56.497Z,73.75
2017-01-24T10:11:05.458Z,73.46
2017-01-24T10:12:14.412Z,73.75
2017-01-24T10:13:23.371Z,73.37
2017-01-24T10:14:32.326Z,73.18
2017-01-24T10:15:41.276Z,73.18
2017-01-24T10:16:50.234Z,73.46
2017-01-24T10:17:59.191Z,73.27
2017-01-24T10:19:08.144Z,73.18
2017-01-24T10:20:17.129Z,73.27
2017-01-24T10:21:26.085Z,73.46
2017-01-24T10:22:35.046Z,73.65
2017-01-24T10:23:44.001Z,73.37
2017-01-24T10:24:53.140Z,73.37
2017-01-24T10:26:02.121Z,73.37
2017-01-24T10:27:11.080Z,73.27
2017-01-24T10:28:20.442Z,73.43
2017-01-24T10:29:29.400Z,73.46
2017-01-24T10:30:39.131Z,73.18
2017-01-24T10:31:48.338Z,73.65
2017-01-24T10:32:57.677Z,73.46
2017-01-24T10:34:06.640Z,73.46
2017-01-24T10:35:15.598Z,73.18
2017-01-24T10:36:24.572Z,73.56
2017-01-24T10:37:33.803Z,73.56
2017-01-24T10:38:42.838Z,73.65
2017-01-24T10:39:52.191Z,73.18
2017-01-24T10:41:02.177Z,74.03
2017-01-24T10:42:11.422Z,73.65
2017-01-24T10:43:20.387Z,73.18
2017-01-24T10:44:29.826Z,73.27
2017-01-24T10:45:38.927Z,73.37
2017-01-24T10:46:47.888Z,73.46
2017-01-24T10:47:56.853Z,73.37
2017-01-24T10:49:05.822Z,73.27
2017-01-24T10:50:14.780Z,73.18
2017-01-24T10:51:23.730Z,73.56
2017-01-24T10:52:32.773Z,73.65
2017-01-24T10:53:41.725Z,73.27
2017-01-24T10:54:50.678Z,72.89
2017-01-24T10:55:59.629Z,72.89
2017-01-24T10:57:08.608Z,72.99
2017-01-24T10:58:17.567Z,73.08
2017-01-24T10:59:26.548Z,73.46
2017-01-24T11:00:35.505Z,73.65
2017-01-24T11:01:44.458Z,73.75
2017-01-24T11:02:53.422Z,73.65
2017-01-24T11:04:02.591Z,73.65
2017-01-24T11:05:11.561Z,73.94
2017-01-24T11:06:20.515Z,73.37
2017-01-24T11:07:29.469Z,73.37
2017-01-24T11:08:38.500Z,73.27
2017-01-24T11:09:47.926Z,73.37
2017-01-24T11:10:56.878Z,73.37
2017-01-24T11:12:05.838Z,73.46
2017-01-24T11:13:14.795Z,73.75
2017-01-24T11:14:23.754Z,74.03
2017-01-24T11:15:32.707Z,73.75
2017-01-24T11:16:41.837Z,73.56
2017-01-24T11:17:52.074Z,73.18
2017-01-24T11:19:01.048Z,73.56
2017-01-24T11:20:10.003Z,73.46
2017-01-24T11:21:18.962Z,73.56
2017-01-24T11:22:28.034Z,73.18
2017-01-24T11:23:36.988Z,73.46
2017-01-24T11:24:45.973Z,73.27
2017-01-24T11:25:54.931Z,73.65
2017-01-24T11:27:03.885Z,74.03
2017-01-24T11:28:12.840Z,73.94
2017-01-24T11:29:21.793Z,73.27
2017-01-24T11:30:30.749Z,73.37
2017-01-24T11:31:39.702Z,73.37
2017-01-24T11:32:48.654Z,73.56
2017-01-24T11:33:57.608Z,73.46
2017-01-24T11:35:06.649Z,73.65
2017-01-24T11:36:15.608Z,73.27
2017-01-24T11:37:24.577Z,73.65
2017-01-24T11:38:33.621Z,73.65
2017-01-24T11:39:42.574Z,73.94
2017-01-24T11:40:51.530Z,73.46
2017-01-24T11:42:00.509Z,73.65
2017-01-24T11:43:09.469Z,73.46
2017-01-24T11:44:18.426Z,73.75
2017-01-24T11:45:27.377Z,73.46
2017-01-24T11:46:36.339Z,73.75
2017-01-24T11:47:45.306Z,73.65
2017-01-24T11:48:54.260Z,73.84
2017-01-24T11:50:03.215Z,73.27
2017-01-24T11:51:12.170Z,73.27
2017-01-24T11:52:21.127Z,73.46
2017-01-24T11:53:30.087Z,73.37
2017-01-24T11:54:39.042Z,73.46
2017-01-24T11:55:48.376Z,73.65
2017-01-24T11:56:57.803Z,72.99
2017-01-24T11:58:08.238Z,73.46
2017-01-24T11:59:18.390Z,72.99
2017-01-24T12:00:28.631Z,73.56
2017-01-24T12:01:38.466Z,73.65
2017-01-24T12:02:47.557Z,73.65
2017-01-24T12:03:58.115Z,73.94
2017-01-24T12:05:07.538Z,73.84
2017-01-24T12:06:16.678Z,73.56
2017-01-24T12:07:26.729Z,73.94
2017-01-24T12:08:37.572Z,73.94
2017-01-24T12:09:47.945Z,73.75
2017-01-24T12:10:57.269Z,73.46
2017-01-24T12:12:06.906Z,73.56
2017-01-24T12:13:16.533Z,73.27
2017-01-24T12:14:25.648Z,73.65
2017-01-24T12:15:36.644Z,73.94
2017-01-24T12:16:45.595Z,73.94
2017-01-24T12:17:54.575Z,74.13
2017-01-24T12:19:05.277Z,73.65
2017-01-24T12:20:14.228Z,74.13
2017-01-24T12:21:23.196Z,73.94
2017-01-24T12:22:32.481Z,74.13
2017-01-24T12:23:42.338Z,74.32
2017-01-24T12:24:53.819Z,74.22
2017-01-24T12:26:02.787Z,74.03
2017-01-24T12:27:11.745Z,74.32
2017-01-24T12:28:20.699Z,74.13
2017-01-24T12:29:30.238Z,73.94
2017-01-24T12:30:41.447Z,73.94
2017-01-24T12:31:52.359Z,73.94
2017-01-24T12:33:04.991Z,74.32
2017-01-24T12:34:15.024Z,74.32
2017-01-24T12:35:25.448Z,73.94
2017-01-24T12:36:35.135Z,73.94
2017-01-24T12:37:44.447Z,74.03
2017-01-24T12:38:53.404Z,74.22
2017-01-24T12:40:02.360Z,74.32
2017-01-24T12:41:11.310Z,74.32
2017-01-24T12:42:20.259Z,74.51
2017-01-24T12:43:29.215Z,74.03
2017-01-24T12:44:38.165Z,73.65
2017-01-24T12:45:47.250Z,73.65
2017-01-24T12:46:56.205Z,73.84
2017-01-24T12:48:05.161Z,73.18
2017-01-24T12:49:14.115Z,73.18
2017-01-24T12:50:23.069Z,73.37
2017-01-24T12:51:32.027Z,73.65
2017-01-24T12:52:40.985Z,73.37
2017-01-24T12:53:49.944Z,73.27
2017-01-24T12:54:58.896Z,73.18
2017-01-24T12:56:07.853Z,73.84
2017-01-24T12:57:16.897Z,73.84
2017-01-24T12:58:25.846Z,73.56
2017-01-24T12:59:34.794Z,73.27
2017-01-24T13:00:43.742Z,73.46
2017-01-24T13:01:52.706Z,73.65
2017-01-24T13:03:01.766Z,73.37
2017-01-24T13:04:10.725Z,73.46
2017-01-24T13:05:19.680Z,73.56
2017-01-24T13:06:28.631Z,73.46
2017-01-24T13:07:37.584Z,73.46
2017-01-24T13:08:47.520Z,73.37
2017-01-24T13:09:56.512Z,73.46
2017-01-24T13:11:05.670Z,72.89
2017-01-24T13:12:15.029Z,72.99
2017-01-24T13:13:24.947Z,73.27
2017-01-24T13:14:34.211Z,72.99
2017-01-24T13:15:43.253Z,73.37
2017-01-24T13:16:52.931Z,73.46
2017-01-24T13:18:01.887Z,73.18
2017-01-24T13:19:11.066Z,72.99
2017-01-24T13:20:20.228Z,72.89
2017-01-24T13:21:30.211Z,73.18
2017-01-24T13:22:42.461Z,73.08
2017-01-24T13:23:53.820Z,73.08
2017-01-24T13:25:03.395Z,72.99
2017-01-24T13:26:13.006Z,73.37
2017-01-24T13:27:23.046Z,73.37
2017-01-24T13:28:33.417Z,73.18
2017-01-24T13:29:43.675Z,73.84
2017-01-24T13:30:52.630Z,73.84
2017-01-24T13:32:01.584Z,73.94
2017-01-24T13:33:10.547Z,73.94
2017-01-24T13:34:19.500Z,73.75
2017-01-24T13:35:28.480Z,73.94
2017-01-24T13:36:38.279Z,73.84
2017-01-24T13:37:48.950Z,73.65
2017-01-24T13:38:57.905Z,73.84
2017-01-24T13:40:06.930Z,74.22
2017-01-24T13:41:15.898Z,73.84
2017-01-24T13:42:24.857Z,74.03
2017-01-24T13:43:33.810Z,74.13
2017-01-24T13:44:42.768Z,73.94
2017-01-24T13:45:51.723Z,73.65
2017-01-24T13:47:00.677Z,73.46
2017-01-24T13:48:10.575Z,73.75
2017-01-24T13:49:22.789Z,74.51
2017-01-24T13:50:32.197Z,73.56
2017-01-24T13:51:41.155Z,74.41
2017-01-24T13:52:50.147Z,74.6
2017-01-24T13:53:59.194Z,74.79
2017-01-24T13:55:08.148Z,74.69
2017-01-24T13:56:17.100Z,75.17
2017-01-24T13:57:26.145Z,75.17
2017-01-24T13:58:35.105Z,75.55
2017-01-24T13:59:44.086Z,75.36
2017-01-24T14:00:53.037Z,75.17
2017-01-24T14:02:02.008Z,74.32
2017-01-24T14:03:10.988Z,75.36
2017-01-24T14:04:19.943Z,74.98
2017-01-24T14:05:28.899Z,75.74
2017-01-24T14:06:37.859Z,75.74
2017-01-24T14:07:47.419Z,75.84
2017-01-24T14:08:57.760Z,75.74
2017-01-24T14:10:06.766Z,75.36
2017-01-24T14:11:16.379Z,75.45
2017-01-24T14:12:27.489Z,75.45
2017-01-24T14:13:36.830Z,75.74
2017-01-24T14:14:46.771Z,75.84
2017-01-24T14:15:55.858Z,75.55
2017-01-24T14:17:04.927Z,75.55
2017-01-24T14:18:14.453Z,75.74
2017-01-24T14:19:24.598Z,75.84
2017-01-24T14:20:34.486Z,76.4
2017-01-24T14:21:43.771Z,75.93
2017-01-24T14:22:53.931Z,75.93
2017-01-24T14:24:03.656Z,76.5
2017-01-24T14:25:13.256Z,75.93
2017-01-24T14:26:22.208Z,75.93
2017-01-24T14:27:31.170Z,76.03
2017-01-24T14:28:40.792Z,75.93
2017-01-24T14:29:50.613Z,75.84
2017-01-24T14:30:59.859Z,76.31
2017-01-24T14:32:08.817Z,76.4
2017-01-24T14:33:17.786Z,76.03
2017-01-24T14:34:27.627Z,76.4
2017-01-24T14:35:37.084Z,76.4
2017-01-24T14:36:47.306Z,76.59
2017-01-24T14:37:56.341Z,76.97
2017-01-24T14:39:07.620Z,76.68
2017-01-24T14:40:19.028Z,76.68
2017-01-24T14:41:29.926Z,76.4
2017-01-24T14:42:39.457Z,76.21
2017-01-24T14:43:48.414Z,76.31
2017-01-24T14:44:57.372Z,76.5
2017-01-24T14:46:08.360Z,76.12
2017-01-24T14:47:21.208Z,76.5
2017-01-24T14:48:33.833Z,76.31
2017-01-24T14:49:45.400Z,76.03
2017-01-24T14:50:56.484Z,76.31
2017-01-24T14:52:08.064Z,76.5
2017-01-24T14:53:17.763Z,76.59
2017-01-24T14:54:27.493Z,76.4
2017-01-24T14:55:37.965Z,76.21
2017-01-24T14:56:46.952Z,76.12